Time;durP1;ratioP1;P1;durP2;ratioP2;P2;SDS_P1;SDS_P2;PMS_P1;PMS_P2;Temp;Humidity;BMP_temperature;BMP_pressure;BME280_temperature;BME280_humidity;BME280_pressure;Samples;Min_cycle;Max_cycle;Signal;HPM_P1;HPM_P2
2022/12/20 00:02:09;;;;;;;25.13;17.43;;;7.00;69.60;;;;;;4984118;28;20516;-56
2022/12/20 00:04:34;;;;;;;19.93;14.87;;;7.20;69.00;;;;;;4983701;28;20190;-55
2022/12/20 00:07:00;;;;;;;21.87;16.17;;;7.10;69.30;;;;;;4980649;28;20610;-56
2022/12/20 00:09:25;;;;;;;19.43;14.73;;;7.10;69.30;;;;;;4982845;28;20276;-55
2022/12/20 00:11:51;;;;;;;22.03;15.50;;;7.20;69.10;;;;;;4979200;28;20218;-55
2022/12/20 00:14:17;;;;;;;19.60;13.97;;;7.20;69.40;;;;;;4981083;28;20202;-55
2022/12/20 00:16:42;;;;;;;21.77;15.00;;;7.20;69.20;;;;;;4984655;28;20297;-55
2022/12/20 00:19:10;;;;;;;22.70;16.10;;;7.20;69.00;;;;;;4985660;28;20233;-55
2022/12/20 00:21:37;;;;;;;24.00;16.00;;;7.30;69.10;;;;;;4979139;28;20191;-56
2022/12/20 00:24:04;;;;;;;21.20;15.20;;;7.10;69.20;;;;;;4979384;28;20971;-55
2022/12/20 00:26:31;;;;;;;22.70;14.30;;;6.90;70.40;;;;;;4985605;28;20530;-55
2022/12/20 00:28:57;;;;;;;22.30;15.87;;;6.80;70.80;;;;;;4984551;28;20828;-56
2022/12/20 00:31:25;;;;;;;20.83;14.87;;;6.80;70.60;;;;;;4990856;28;20533;-56
2022/12/20 00:33:53;;;;;;;23.20;16.70;;;6.70;71.20;;;;;;4986923;28;21440;-56
2022/12/20 00:36:19;;;;;;;18.77;15.10;;;6.90;70.60;;;;;;4984741;28;20438;-56
2022/12/20 00:38:46;;;;;;;21.67;15.93;;;6.90;70.30;;;;;;4981848;28;20492;-56
2022/12/20 00:41:17;;;;;;;21.90;15.10;;;6.90;70.80;;;;;;4980755;28;20795;-56
2022/12/20 00:43:43;;;;;;;25.70;16.43;;;7.00;70.30;;;;;;4987475;28;20448;-56
2022/12/20 00:46:10;;;;;;;22.60;15.07;;;7.00;70.20;;;;;;4984566;28;20456;-57
2022/12/20 00:48:36;;;;;;;19.07;13.93;;;7.20;69.50;;;;;;4985458;28;21004;-57
2022/12/20 00:51:05;;;;;;;23.10;14.77;;;7.00;69.60;;;;;;4986115;28;20449;-56
2022/12/20 00:53:31;;;;;;;17.43;14.30;;;6.80;70.10;;;;;;4989528;28;20453;-56
2022/12/20 00:55:57;;;;;;;25.20;16.50;;;6.70;71.00;;;;;;4988883;28;20438;-56
2022/12/20 00:58:22;;;;;;;24.90;14.87;;;6.60;71.10;;;;;;4983829;28;20226;-56
2022/12/20 01:00:49;;;;;;;27.33;14.67;;;6.70;70.70;;;;;;4985961;28;20492;-56
2022/12/20 01:03:14;;;;;;;18.97;14.40;;;6.70;71.20;;;;;;4982986;28;20298;-55
2022/12/20 01:05:52;;;;;;;21.53;14.33;;;6.80;70.90;;;;;;4987377;28;20524;-56
2022/12/20 01:08:18;;;;;;;23.23;15.17;;;6.90;70.80;;;;;;4980706;28;20194;-55
2022/12/20 01:10:44;;;;;;;25.23;16.63;;;7.00;70.80;;;;;;4987902;28;20450;-56
2022/12/20 01:13:10;;;;;;;22.63;15.60;;;6.90;70.30;;;;;;4985962;28;20457;-58
2022/12/20 01:15:36;;;;;;;17.87;13.20;;;6.90;70.70;;;;;;4980204;28;20205;-56
2022/12/20 01:18:01;;;;;;;22.00;14.87;;;7.00;70.40;;;;;;4986932;28;20199;-56
2022/12/20 01:20:27;;;;;;;23.80;16.13;;;7.00;70.60;;;;;;4991718;28;20233;-56
2022/12/20 01:22:52;;;;;;;20.23;14.47;;;7.00;70.70;;;;;;4982333;28;20201;-56
2022/12/20 01:25:18;;;;;;;22.70;15.17;;;7.00;69.90;;;;;;4984562;28;20237;-56
2022/12/20 01:27:43;;;;;;;22.67;14.63;;;7.00;70.20;;;;;;4986866;28;20198;-56
2022/12/20 01:30:10;;;;;;;23.30;15.07;;;7.00;70.20;;;;;;4987684;28;20555;-56
2022/12/20 01:32:35;;;;;;;23.63;15.13;;;7.00;70.40;;;;;;4988088;28;20218;-57
2022/12/20 01:35:01;;;;;;;21.60;15.10;;;7.10;70.20;;;;;;4986854;28;20449;-56
2022/12/20 01:37:26;;;;;;;21.30;14.00;;;7.00;70.80;;;;;;4993454;28;20230;-56
2022/12/20 01:39:52;;;;;;;20.40;15.53;;;7.10;70.30;;;;;;4983478;28;20697;-58
2022/12/20 01:42:18;;;;;;;22.13;14.23;;;7.30;69.50;;;;;;4983161;28;20278;-58
2022/12/20 01:44:43;;;;;;;20.57;14.83;;;7.60;68.90;;;;;;4983104;28;20722;-57
2022/12/20 01:47:11;;;;;;;20.63;14.73;;;7.50;68.20;;;;;;4981667;28;20606;-58
2022/12/20 01:49:45;;;;;;;19.73;14.13;;;7.60;68.20;;;;;;4986221;28;20199;-58
2022/12/20 01:52:14;;;;;;;21.00;15.00;;;7.50;68.00;;;;;;4990250;28;20458;-57
2022/12/20 01:55:08;;;;;;;19.13;14.17;;;7.30;68.60;;;;;;4984744;28;20444;-58
2022/12/20 01:57:37;;;;;;;24.43;13.73;;;7.20;69.20;;;;;;4983792;28;20453;-57
2022/12/20 02:00:05;;;;;;;20.77;14.87;;;7.40;69.00;;;;;;4988847;28;21120;-57
2022/12/20 02:02:32;;;;;;;21.63;14.67;;;7.60;68.20;;;;;;4978703;28;20458;-58
2022/12/20 02:04:58;;;;;;;21.00;13.73;;;7.80;67.40;;;;;;4983992;28;20448;-57
2022/12/20 02:07:26;;;;;;;18.57;13.40;;;7.60;67.60;;;;;;4985397;28;20438;-57
2022/12/20 02:09:53;;;;;;;18.80;13.33;;;7.70;68.00;;;;;;4985049;28;20202;-58
2022/12/20 02:12:24;;;;;;;18.50;14.60;;;7.60;67.70;;;;;;4988298;28;20957;-57
2022/12/20 02:15:00;;;;;;;20.40;13.60;;;7.50;68.10;;;;;;4985892;28;20453;-58
2022/12/20 02:17:53;;;;;;;19.77;14.30;;;7.50;68.50;;;;;;4982535;28;20928;-58
2022/12/20 02:20:37;;;;;;;18.20;14.13;;;7.40;69.10;;;;;;4983035;28;20593;-57
2022/12/20 02:23:28;;;;;;;18.60;13.13;;;7.60;68.70;;;;;;4987060;28;20531;-58
2022/12/20 02:26:12;;;;;;;19.10;13.80;;;7.40;68.30;;;;;;4985074;28;20454;-58
2022/12/20 02:28:59;;;;;;;20.10;13.67;;;7.20;70.10;;;;;;4986746;28;20469;-58
2022/12/20 02:31:29;;;;;;;20.20;13.67;;;7.20;69.90;;;;;;4988015;28;20500;-57
2022/12/20 02:33:56;;;;;;;17.90;12.10;;;7.20;69.90;;;;;;4988703;28;20441;-58
2022/12/20 02:36:22;;;;;;;16.63;12.80;;;7.00;70.60;;;;;;4982119;28;20972;-58
2022/12/20 02:38:47;;;;;;;21.20;12.77;;;7.00;71.30;;;;;;4984322;28;20481;-57
2022/12/20 02:41:25;;;;;;;19.70;12.93;;;7.10;71.10;;;;;;4989735;28;20257;-57
2022/12/20 02:46:45;;;;;;;18.83;14.57;;;7.00;70.50;;;;;;4985185;28;20528;-58
2022/12/20 02:49:15;;;;;;;22.03;15.30;;;7.30;69.90;;;;;;4982555;28;20504;-58
2022/12/20 02:51:43;;;;;;;20.93;14.60;;;7.50;68.80;;;;;;4983975;28;21439;-57
2022/12/20 02:54:09;;;;;;;16.67;12.97;;;7.70;68.10;;;;;;4987800;28;20485;-58
2022/12/20 02:56:44;;;;;;;21.00;14.30;;;7.60;67.70;;;;;;4990120;28;20889;-58
2022/12/20 02:59:47;;;;;;;24.13;14.70;;;7.70;67.80;;;;;;4985942;28;20236;-58
2022/12/20 03:02:14;;;;;;;23.20;13.33;;;7.40;67.90;;;;;;4984481;28;20454;-56
2022/12/20 03:04:40;;;;;;;24.60;13.90;;;7.40;68.10;;;;;;4984020;28;20803;-56
2022/12/20 03:07:07;;;;;;;21.13;14.10;;;7.50;68.30;;;;;;4987185;28;20457;-56
2022/12/20 03:09:36;;;;;;;22.50;14.57;;;7.30;68.70;;;;;;4986122;28;20449;-57
2022/12/20 03:12:02;;;;;;;20.80;14.17;;;7.00;70.30;;;;;;4987483;28;20449;-56
2022/12/20 03:14:28;;;;;;;22.00;13.40;;;7.10;70.40;;;;;;4986282;28;20442;-56
2022/12/20 03:16:53;;;;;;;22.53;14.20;;;7.10;70.40;;;;;;4990793;28;20230;-57
2022/12/20 03:19:19;;;;;;;17.90;13.73;;;7.10;70.30;;;;;;4997100;28;20566;-56
2022/12/20 03:21:45;;;;;;;23.80;15.33;;;7.20;69.80;;;;;;4985746;28;20558;-56
2022/12/20 03:24:12;;;;;;;18.70;13.83;;;7.20;69.10;;;;;;4986113;28;20203;-55
2022/12/20 03:26:38;;;;;;;20.90;14.50;;;7.20;69.40;;;;;;4980782;28;20453;-56
2022/12/20 03:29:04;;;;;;;23.27;15.40;;;7.20;69.10;;;;;;4990220;28;20453;-56
2022/12/20 03:31:30;;;;;;;19.43;13.53;;;7.30;69.50;;;;;;4985811;28;20498;-56
2022/12/20 03:33:56;;;;;;;21.30;14.30;;;7.30;69.20;;;;;;4980346;28;20669;-57
2022/12/20 03:36:22;;;;;;;20.90;13.90;;;7.50;68.60;;;;;;4988418;28;20677;-56
2022/12/20 03:38:52;;;;;;;18.43;13.40;;;7.60;68.40;;;;;;4981951;28;20599;-57
2022/12/20 03:41:20;;;;;;;21.53;13.30;;;7.60;68.10;;;;;;4985933;28;20454;-57
2022/12/20 03:43:45;;;;;;;20.63;14.43;;;7.50;68.60;;;;;;4986389;28;21012;-57
2022/12/20 03:46:11;;;;;;;20.67;14.30;;;7.50;68.90;;;;;;4984619;28;20454;-56
2022/12/20 03:48:37;;;;;;;18.50;13.10;;;7.30;69.10;;;;;;5002970;28;20194;-57
2022/12/20 03:51:03;;;;;;;23.70;15.23;;;7.30;69.20;;;;;;4984588;28;20210;-57
2022/12/20 03:53:29;;;;;;;20.93;14.50;;;7.30;69.30;;;;;;4978576;28;22178;-56
2022/12/20 03:55:55;;;;;;;20.27;13.97;;;7.30;68.80;;;;;;4984702;28;20553;-56
2022/12/20 03:58:21;;;;;;;20.70;13.10;;;7.30;68.90;;;;;;4988403;28;20210;-56
2022/12/20 04:00:46;;;;;;;21.77;15.43;;;7.20;68.50;;;;;;4988036;28;20836;-58
2022/12/20 04:03:12;;;;;;;18.73;13.60;;;7.20;68.40;;;;;;4984610;28;20194;-58
2022/12/20 04:05:38;;;;;;;17.30;13.50;;;7.30;68.40;;;;;;4988604;28;20226;-58
2022/12/20 04:08:03;;;;;;;22.90;15.37;;;7.40;68.00;;;;;;4984798;28;20484;-57
2022/12/20 04:10:29;;;;;;;19.47;13.53;;;7.60;68.10;;;;;;4985633;28;20215;-58
2022/12/20 04:12:55;;;;;;;21.37;13.73;;;7.80;67.20;;;;;;4990812;28;20206;-57
2022/12/20 04:15:21;;;;;;;23.37;14.07;;;7.80;66.70;;;;;;4987720;28;20212;-57
2022/12/20 04:17:46;;;;;;;23.87;13.83;;;7.80;66.50;;;;;;4986566;28;20250;-58
2022/12/20 04:20:18;;;;;;;21.87;13.60;;;8.00;66.50;;;;;;4981219;28;20227;-58
2022/12/20 04:22:48;;;;;;;17.77;13.07;;;8.00;65.80;;;;;;4981317;28;20222;-56
2022/12/20 04:25:16;;;;;;;18.90;14.50;;;8.00;65.40;;;;;;4982877;28;20454;-57
2022/12/20 04:27:42;;;;;;;17.50;13.43;;;8.00;65.80;;;;;;4985692;28;20473;-57
2022/12/20 04:30:08;;;;;;;21.23;13.10;;;7.80;65.70;;;;;;4984443;28;20438;-57
2022/12/20 04:32:34;;;;;;;19.07;13.20;;;7.70;66.50;;;;;;4982077;28;20345;-57
2022/12/20 04:34:59;;;;;;;19.63;14.00;;;7.80;67.20;;;;;;4982460;28;20537;-57
2022/12/20 04:37:26;;;;;;;18.10;13.40;;;7.70;66.80;;;;;;4982805;28;20549;-57
2022/12/20 04:39:51;;;;;;;18.10;13.60;;;7.80;67.20;;;;;;4987850;28;20316;-57
2022/12/20 04:42:17;;;;;;;17.80;12.77;;;8.00;66.60;;;;;;4983780;28;20500;-57
2022/12/20 04:44:43;;;;;;;20.33;12.57;;;7.90;66.40;;;;;;4982514;28;20202;-56
2022/12/20 04:47:09;;;;;;;17.40;12.83;;;7.80;66.30;;;;;;4989589;28;20296;-57
2022/12/20 04:49:35;;;;;;;16.20;12.90;;;7.90;66.80;;;;;;4984822;28;20678;-58
2022/12/20 04:53:46;;;;;;;21.50;14.40;;;8.10;66.10;;;;;;4987010;28;20461;-56
2022/12/20 04:54:46;;;;;;;17.77;12.30;;;7.90;66.10;;;;;;4987328;28;20207;-58
2022/12/20 04:57:12;;;;;;;18.10;14.13;;;8.00;66.10;;;;;;4989989;28;20453;-57
2022/12/20 04:59:38;;;;;;;18.50;12.73;;;8.20;65.60;;;;;;4990317;28;20226;-57
2022/12/20 05:02:03;;;;;;;17.83;12.73;;;8.30;64.60;;;;;;4986671;28;20437;-57
2022/12/20 05:04:29;;;;;;;23.80;14.40;;;8.30;64.20;;;;;;4993431;28;20261;-57
2022/12/20 05:06:55;;;;;;;18.87;13.40;;;8.30;64.10;;;;;;4991548;28;20198;-57
2022/12/20 05:09:20;;;;;;;17.27;13.53;;;8.40;63.40;;;;;;4991338;28;20545;-58
2022/12/20 05:11:46;;;;;;;22.57;13.50;;;8.30;63.70;;;;;;4988903;28;20210;-57
2022/12/20 05:14:11;;;;;;;20.20;14.73;;;8.30;63.60;;;;;;4989686;28;20198;-57
2022/12/20 05:16:37;;;;;;;22.27;13.47;;;8.20;63.90;;;;;;4988177;28;20231;-57
2022/12/20 05:19:03;;;;;;;18.10;14.40;;;8.30;64.30;;;;;;4991057;28;20710;-57
2022/12/20 05:26:59;;;;;;;17.17;12.40;;;7.70;65.60;;;;;;4993382;28;20456;-56
2022/12/20 05:29:24;;;;;;;17.47;12.20;;;7.60;66.20;;;;;;4989021;28;20446;-57
2022/12/20 05:31:50;;;;;;;19.97;13.13;;;7.80;66.50;;;;;;4985405;28;20879;-57
2022/12/20 05:34:16;;;;;;;18.67;12.40;;;7.70;67.40;;;;;;4993340;28;20195;-58
2022/12/20 05:36:41;;;;;;;18.13;12.67;;;7.80;67.30;;;;;;4990541;28;20948;-57
2022/12/20 05:39:07;;;;;;;19.90;13.77;;;7.70;67.20;;;;;;4983805;28;20238;-57
2022/12/20 05:41:32;;;;;;;20.30;13.17;;;7.50;67.90;;;;;;4992199;28;20205;-58
2022/12/20 05:43:58;;;;;;;19.87;14.57;;;7.40;69.10;;;;;;4982870;28;20325;-58
2022/12/20 05:46:24;;;;;;;18.40;12.57;;;7.50;68.70;;;;;;4985643;28;20266;-57
2022/12/20 05:48:49;;;;;;;16.67;13.47;;;7.50;68.80;;;;;;4987287;28;20201;-58
2022/12/20 05:51:15;;;;;;;19.97;12.43;;;7.60;68.50;;;;;;4986071;28;20234;-58
2022/12/20 05:53:40;;;;;;;17.10;12.50;;;7.60;68.60;;;;;;4989106;28;20186;-58
2022/12/20 05:56:06;;;;;;;20.57;12.80;;;7.60;68.70;;;;;;4992301;28;20590;-58
2022/12/20 05:58:32;;;;;;;15.17;11.17;;;7.80;68.60;;;;;;4987841;28;20199;-58
2022/12/20 06:01:04;;;;;;;12.73;10.20;;;7.90;68.50;;;;;;4978726;28;20529;-58
2022/12/20 06:03:29;;;;;;;12.77;9.40;;;8.10;67.90;;;;;;4990587;28;20222;-58
2022/12/20 06:05:55;;;;;;;13.27;10.97;;;8.00;67.90;;;;;;4993566;28;20441;-58
2022/12/20 06:08:22;;;;;;;14.80;10.93;;;8.10;68.00;;;;;;4992532;28;20564;-57
2022/12/20 06:10:48;;;;;;;13.70;11.30;;;8.20;67.70;;;;;;4985351;28;20441;-57
2022/12/20 06:13:14;;;;;;;14.10;10.23;;;8.40;66.50;;;;;;4987520;28;20437;-58
2022/12/20 06:15:39;;;;;;;15.43;10.40;;;8.50;66.00;;;;;;4990989;28;20282;-56
2022/12/20 06:18:05;;;;;;;16.47;11.10;;;8.50;66.00;;;;;;4983874;28;20452;-57
2022/12/20 06:20:35;;;;;;;15.83;10.83;;;8.50;65.80;;;;;;4986468;28;20230;-58
2022/12/20 06:23:01;;;;;;;13.23;9.93;;;8.50;65.50;;;;;;4985059;28;20446;-58
2022/12/20 06:25:27;;;;;;;18.20;9.43;;;8.70;65.10;;;;;;4986527;28;20809;-59
2022/12/20 06:27:53;;;;;;;14.63;9.70;;;9.00;66.30;;;;;;4984922;28;20453;-59
2022/12/20 06:30:20;;;;;;;14.43;10.20;;;9.10;66.00;;;;;;4988582;28;20497;-59
2022/12/20 06:32:46;;;;;;;12.80;10.53;;;9.30;64.90;;;;;;4984124;28;20980;-59
2022/12/20 06:35:13;;;;;;;13.07;10.10;;;9.50;64.10;;;;;;4985248;28;20454;-58
2022/12/20 06:37:39;;;;;;;14.50;10.87;;;9.60;62.90;;;;;;4985533;28;20449;-59
2022/12/20 06:40:09;;;;;;;18.90;11.50;;;9.80;61.60;;;;;;4985140;28;20488;-59
2022/12/20 06:42:34;;;;;;;16.73;11.47;;;9.90;61.10;;;;;;4984265;28;20529;-59
2022/12/20 06:45:00;;;;;;;13.97;11.17;;;10.00;59.20;;;;;;4985280;28;20528;-59
2022/12/20 06:47:25;;;;;;;19.83;11.50;;;10.10;59.20;;;;;;4986880;28;20305;-60
2022/12/20 06:49:51;;;;;;;14.60;10.40;;;10.20;58.50;;;;;;4988731;28;20202;-59
2022/12/20 06:52:17;;;;;;;19.80;12.90;;;10.30;58.40;;;;;;4991491;28;20191;-59
2022/12/20 06:54:42;;;;;;;19.23;11.67;;;10.30;58.00;;;;;;4989158;28;20657;-59
2022/12/20 06:57:08;;;;;;;15.23;11.47;;;10.40;57.70;;;;;;4986074;28;20627;-59
2022/12/20 06:59:34;;;;;;;18.30;12.70;;;10.30;57.20;;;;;;4979599;28;20233;-59
2022/12/20 07:01:59;;;;;;;13.83;11.23;;;10.30;57.70;;;;;;4989953;28;20201;-59
2022/12/20 07:04:25;;;;;;;16.60;11.60;;;10.20;57.50;;;;;;4992178;28;20463;-59
2022/12/20 07:06:51;;;;;;;15.33;11.27;;;9.90;58.30;;;;;;4982909;28;21452;-59
2022/12/20 07:09:16;;;;;;;15.37;12.47;;;10.00;58.10;;;;;;4987230;28;20218;-59
2022/12/20 07:11:42;;;;;;;18.50;10.90;;;10.00;58.40;;;;;;4988697;28;20191;-59
2022/12/20 07:14:08;;;;;;;15.87;11.23;;;9.90;58.90;;;;;;4991643;28;20190;-59
2022/12/20 07:16:34;;;;;;;16.70;11.63;;;10.00;58.30;;;;;;4990235;28;20234;-59
2022/12/20 07:19:00;;;;;;;14.23;10.03;;;10.10;57.80;;;;;;4990573;28;20490;-59
2022/12/20 07:21:26;;;;;;;14.07;11.30;;;10.10;58.20;;;;;;4985542;28;21019;-59
2022/12/20 07:23:52;;;;;;;15.63;11.07;;;10.00;57.90;;;;;;4981457;28;20443;-59
2022/12/20 07:26:17;;;;;;;13.77;10.07;;;10.20;58.00;;;;;;4985935;28;20251;-60
2022/12/20 07:28:43;;;;;;;11.53;9.13;;;10.20;57.60;;;;;;4991900;28;20469;-59
2022/12/20 07:31:09;;;;;;;13.60;10.17;;;10.30;57.70;;;;;;4989280;28;20203;-59
2022/12/20 07:33:36;;;;;;;12.83;10.50;;;10.40;57.80;;;;;;4982353;28;20195;-56
2022/12/20 07:36:06;;;;;;;13.17;10.07;;;10.50;57.40;;;;;;4989153;28;20560;-59
2022/12/20 07:38:34;;;;;;;14.07;10.73;;;10.40;57.10;;;;;;4986063;28;20896;-56
2022/12/20 07:41:00;;;;;;;16.40;11.43;;;10.20;57.70;;;;;;4983514;28;20426;-56
2022/12/20 07:43:26;;;;;;;15.33;11.03;;;10.10;58.20;;;;;;4989134;28;20450;-57
2022/12/20 07:45:55;;;;;;;14.87;11.00;;;9.60;59.20;;;;;;4992130;28;20480;-56
2022/12/20 07:48:22;;;;;;;24.30;14.03;;;9.50;60.30;;;;;;4991221;28;20453;-56
2022/12/20 07:50:50;;;;;;;13.30;10.97;;;9.40;60.60;;;;;;4991199;28;20441;-56
2022/12/20 07:53:16;;;;;;;15.57;11.10;;;9.30;61.20;;;;;;4991705;28;20999;-56
2022/12/20 07:55:42;;;;;;;15.43;12.33;;;9.30;61.40;;;;;;4989428;28;20445;-56
2022/12/20 07:58:11;;;;;;;18.80;11.83;;;9.30;61.70;;;;;;4986757;28;20959;-56
2022/12/20 08:00:37;;;;;;;17.00;11.53;;;9.20;62.50;;;;;;4986738;28;20489;-55
2022/12/20 08:03:09;;;;;;;17.33;10.83;;;9.30;62.30;;;;;;4988189;28;20778;-56
2022/12/20 08:05:37;;;;;;;15.40;11.50;;;9.40;61.60;;;;;;4990381;28;20446;-55
2022/12/20 08:08:05;;;;;;;14.57;11.87;;;9.50;61.30;;;;;;4985204;28;21225;-56
2022/12/20 08:10:31;;;;;;;19.70;12.50;;;9.50;61.50;;;;;;4988087;28;20454;-57
2022/12/20 08:12:57;;;;;;;17.07;11.90;;;9.50;61.20;;;;;;4990720;28;20445;-55
2022/12/20 08:15:23;;;;;;;15.80;13.40;;;9.30;61.40;;;;;;4989479;28;20445;-56
2022/12/20 08:17:49;;;;;;;18.53;11.90;;;9.40;61.60;;;;;;4991794;28;20827;-56
2022/12/20 08:20:15;;;;;;;17.30;12.40;;;9.40;61.50;;;;;;4985849;28;20493;-56
2022/12/20 08:22:40;;;;;;;15.60;10.30;;;9.50;61.30;;;;;;4986655;28;20202;-55
2022/12/20 08:25:06;;;;;;;15.53;12.17;;;9.40;61.20;;;;;;4991107;28;20470;-56
2022/12/20 08:27:32;;;;;;;16.37;11.50;;;9.30;62.30;;;;;;4987330;28;20203;-56
2022/12/20 08:29:58;;;;;;;16.93;11.60;;;9.10;62.60;;;;;;4982823;28;20445;-55
2022/12/20 08:32:24;;;;;;;14.00;10.70;;;9.20;63.10;;;;;;4987684;28;20190;-55
2022/12/20 08:34:50;;;;;;;15.73;10.90;;;9.30;62.70;;;;;;4993246;28;20442;-55
2022/12/20 08:37:16;;;;;;;13.13;10.00;;;9.40;62.80;;;;;;4992730;28;20191;-55
2022/12/20 08:39:42;;;;;;;17.23;10.90;;;9.30;62.40;;;;;;4995024;28;20503;-55
2022/12/20 08:42:08;;;;;;;14.13;11.30;;;9.30;62.30;;;;;;4994363;28;20190;-57
2022/12/20 08:44:33;;;;;;;16.17;10.20;;;9.30;62.30;;;;;;4994084;28;20209;-55
2022/12/20 08:46:59;;;;;;;15.10;12.37;;;9.20;63.30;;;;;;4993406;28;20206;-53
2022/12/20 08:49:24;;;;;;;16.43;12.27;;;9.10;63.80;;;;;;4991823;28;20201;-55
2022/12/20 08:51:50;;;;;;;21.93;10.10;;;9.20;63.00;;;;;;4979279;28;20198;-54
2022/12/20 08:54:16;;;;;;;13.43;11.07;;;9.00;63.70;;;;;;4983582;28;20222;-54
2022/12/20 08:56:42;;;;;;;15.63;10.47;;;9.20;63.90;;;;;;4990078;28;20194;-54
2022/12/20 08:59:07;;;;;;;12.07;9.43;;;9.30;63.60;;;;;;4990490;28;20564;-50
2022/12/20 09:01:33;;;;;;;12.93;9.47;;;9.30;64.00;;;;;;4990940;28;20201;-53
2022/12/20 09:03:59;;;;;;;12.77;9.17;;;9.40;63.80;;;;;;4990312;28;20198;-52
2022/12/20 09:06:25;;;;;;;13.10;9.40;;;9.50;63.60;;;;;;4992007;28;20646;-53
2022/12/20 09:08:51;;;;;;;10.33;8.93;;;9.60;63.70;;;;;;4982262;28;20198;-53
2022/12/20 09:11:19;;;;;;;13.83;9.00;;;9.70;62.80;;;;;;4985814;28;20809;-53
2022/12/20 09:13:47;;;;;;;15.97;10.30;;;9.90;62.60;;;;;;4982529;28;20198;-53
2022/12/20 09:16:15;;;;;;;12.90;10.27;;;10.10;61.20;;;;;;4987683;28;20870;-51
2022/12/20 09:18:41;;;;;;;11.03;9.03;;;10.30;60.70;;;;;;4989645;28;20445;-53
2022/12/20 09:21:07;;;;;;;11.80;9.07;;;10.30;60.30;;;;;;4993445;28;20449;-50
2022/12/20 09:23:35;;;;;;;11.43;9.60;;;10.40;60.10;;;;;;4987885;28;22458;-53
2022/12/20 09:26:05;;;;;;;12.93;10.13;;;10.20;59.70;;;;;;4985955;28;20441;-52
2022/12/20 09:28:31;;;;;;;12.80;9.90;;;10.30;59.80;;;;;;4988672;28;22327;-53
2022/12/20 09:31:03;;;;;;;13.33;10.90;;;10.20;59.70;;;;;;4987166;28;20441;-54
2022/12/20 09:33:30;;;;;;;13.87;10.97;;;10.10;60.70;;;;;;4982594;28;20549;-56
2022/12/20 09:35:57;;;;;;;11.03;8.90;;;10.10;60.50;;;;;;4981540;28;20448;-57
2022/12/20 09:38:23;;;;;;;12.77;10.23;;;10.00;61.00;;;;;;4992663;28;20516;-56
2022/12/20 09:40:51;;;;;;;14.30;9.27;;;9.70;63.10;;;;;;4986364;28;20992;-55
2022/12/20 09:43:19;;;;;;;9.77;8.67;;;9.60;64.20;;;;;;4988917;28;20820;-55
2022/12/20 09:45:47;;;;;;;12.67;8.57;;;9.50;64.80;;;;;;4988705;28;20457;-56
2022/12/20 09:48:24;;;;;;;11.63;8.03;;;9.60;64.60;;;;;;4993809;28;20450;-56
2022/12/20 09:50:56;;;;;;;9.03;8.13;;;9.50;64.90;;;;;;4989280;28;20449;-57
2022/12/20 09:53:49;;;;;;;10.63;7.67;;;9.30;66.20;;;;;;4988397;28;20458;-55
2022/12/20 09:56:20;;;;;;;8.87;7.97;;;9.30;66.40;;;;;;4989971;28;20728;-56
2022/12/20 09:59:02;;;;;;;9.77;7.63;;;9.50;66.10;;;;;;4988981;28;21008;-57
2022/12/20 10:01:31;;;;;;;12.40;7.20;;;9.80;65.10;;;;;;4986483;28;20512;-57
2022/12/20 10:03:58;;;;;;;9.53;7.83;;;9.90;64.20;;;;;;4994049;28;20965;-57
2022/12/20 10:06:36;;;;;;;13.00;8.33;;;10.00;62.70;;;;;;4994935;28;20449;-57
2022/12/20 10:09:09;;;;;;;9.70;8.70;;;10.10;62.70;;;;;;4993523;28;20453;-56
2022/12/20 10:11:56;;;;;;;10.27;7.90;;;10.20;62.20;;;;;;4992966;28;20936;-56
2022/12/20 10:14:56;;;;;;;10.60;8.60;;;10.40;61.70;;;;;;4986712;28;20438;-56
2022/12/20 10:17:31;;;;;;;8.70;7.80;;;10.40;61.80;;;;;;4994462;28;20827;-57
2022/12/20 10:20:17;;;;;;;8.33;7.27;;;10.50;61.40;;;;;;4994438;28;20484;-55
2022/12/20 10:22:58;;;;;;;12.17;9.10;;;10.80;60.50;;;;;;4991336;28;20445;-56
2022/12/20 10:25:30;;;;;;;8.70;6.97;;;10.80;59.80;;;;;;4993407;28;20494;-56
2022/12/20 10:27:59;;;;;;;9.93;8.40;;;10.70;60.10;;;;;;4982491;28;20446;-56
2022/12/20 10:30:27;;;;;;;9.13;6.97;;;10.50;60.70;;;;;;4994294;28;20422;-55
2022/12/20 10:32:56;;;;;;;7.13;6.43;;;10.30;62.10;;;;;;4994157;28;20430;-56
2022/12/20 10:35:39;;;;;;;9.40;6.60;;;10.60;61.80;;;;;;4994182;28;20414;-55
2022/12/20 10:38:16;;;;;;;8.40;6.17;;;10.50;61.40;;;;;;4987026;28;20461;-56
2022/12/20 10:41:06;;;;;;;7.90;6.80;;;10.50;61.40;;;;;;4987421;28;20526;-56
2022/12/20 10:43:42;;;;;;;12.40;8.33;;;10.80;61.40;;;;;;4993049;28;20442;-56
2022/12/20 10:46:09;;;;;;;9.50;7.47;;;10.80;60.50;;;;;;4994097;28;20923;-55
2022/12/20 10:48:38;;;;;;;11.37;7.57;;;10.80;60.00;;;;;;4992333;28;20425;-56
2022/12/20 10:51:09;;;;;;;9.60;6.57;;;10.90;59.70;;;;;;4992876;28;20557;-56
2022/12/20 10:53:36;;;;;;;8.47;7.40;;;11.10;59.50;;;;;;4993594;28;20437;-56
2022/12/20 10:56:18;;;;;;;11.90;8.33;;;11.10;59.30;;;;;;4993951;28;20430;-57
2022/12/20 10:58:53;;;;;;;7.03;6.33;;;11.10;59.30;;;;;;4993747;28;20434;-56
2022/12/20 11:01:21;;;;;;;9.63;6.47;;;11.10;59.50;;;;;;4992364;28;20435;-56
2022/12/20 11:03:56;;;;;;;9.10;7.10;;;11.20;59.70;;;;;;4993739;28;20441;-56
2022/12/20 11:06:26;;;;;;;8.43;7.20;;;11.30;59.30;;;;;;4993712;28;20521;-57
2022/12/20 11:08:52;;;;;;;9.40;8.50;;;11.30;59.10;;;;;;4993534;28;20984;-56
2022/12/20 11:11:23;;;;;;;12.97;8.93;;;11.30;59.00;;;;;;4993072;28;20422;-57
2022/12/20 11:13:50;;;;;;;12.80;9.70;;;11.30;58.70;;;;;;4991852;28;20571;-56
2022/12/20 11:16:33;;;;;;;17.17;11.63;;;11.30;58.90;;;;;;4992363;28;20504;-56
2022/12/20 11:19:40;;;;;;;14.90;12.23;;;11.20;59.00;;;;;;4993131;28;20466;-57
2022/12/20 11:22:08;;;;;;;17.37;13.27;;;11.30;58.60;;;;;;4992441;28;20449;-56
2022/12/20 11:24:56;;;;;;;16.47;13.10;;;11.00;58.10;;;;;;4992363;28;20453;-55
2022/12/20 11:27:33;;;;;;;14.93;12.30;;;10.80;59.00;;;;;;4993343;28;20442;-57
2022/12/20 11:30:16;;;;;;;13.90;10.70;;;10.80;59.80;;;;;;4993311;28;20432;-57
2022/12/20 11:33:14;;;;;;;12.80;9.50;;;11.00;59.80;;;;;;4992053;28;20497;-56
2022/12/20 11:35:49;;;;;;;14.53;11.60;;;11.20;59.60;;;;;;4986328;28;20536;-56
2022/12/20 11:38:41;;;;;;;13.00;9.33;;;11.50;59.10;;;;;;4987215;28;20457;-56
2022/12/20 11:41:18;;;;;;;11.50;9.73;;;11.60;59.00;;;;;;4991443;28;20452;-57
2022/12/20 11:43:46;;;;;;;11.90;10.43;;;11.60;59.00;;;;;;4992958;28;20437;-56
2022/12/20 11:46:39;;;;;;;15.73;12.33;;;11.60;59.00;;;;;;4992907;28;20808;-56
2022/12/20 11:49:14;;;;;;;12.50;10.63;;;11.80;58.50;;;;;;4991547;28;20453;-56
2022/12/20 11:51:48;;;;;;;15.53;10.60;;;11.70;58.60;;;;;;4990777;28;20445;-56
2022/12/20 11:54:31;;;;;;;11.43;9.87;;;11.80;58.60;;;;;;4991878;28;21314;-55
2022/12/20 11:57:08;;;;;;;17.73;8.87;;;11.90;58.40;;;;;;4992698;28;20811;-56
2022/12/20 11:59:41;;;;;;;8.63;7.70;;;11.90;58.40;;;;;;4992663;28;20524;-56
2022/12/20 12:02:47;;;;;;;12.30;8.73;;;11.90;58.40;;;;;;4991393;28;20429;-56
2022/12/20 12:05:46;;;;;;;11.20;9.00;;;11.60;58.90;;;;;;4992613;28;20449;-56
2022/12/20 12:08:20;;;;;;;14.97;11.10;;;11.60;59.00;;;;;;4989868;28;20949;-56
2022/12/20 12:11:20;;;;;;;10.20;8.47;;;11.60;58.60;;;;;;4992684;28;20508;-56
2022/12/20 12:13:46;;;;;;;14.07;10.37;;;11.50;58.70;;;;;;4991318;28;20446;-57
2022/12/20 12:16:18;;;;;;;14.87;12.47;;;11.30;58.80;;;;;;4991209;28;20473;-56
2022/12/20 12:18:44;;;;;;;12.80;9.93;;;11.40;59.10;;;;;;4999945;28;20524;-56
2022/12/20 12:21:22;;;;;;;14.07;10.53;;;11.50;58.80;;;;;;4997670;28;20607;-56
2022/12/20 12:24:33;;;;;;;12.90;10.10;;;11.50;58.70;;;;;;4986533;28;20194;-58
2022/12/20 12:27:00;;;;;;;9.80;8.80;;;11.60;58.60;;;;;;4982213;28;20457;-56
2022/12/20 12:29:28;;;;;;;10.83;9.60;;;11.60;58.50;;;;;;4989760;28;20484;-57
2022/12/20 12:32:16;;;;;;;12.33;8.90;;;11.80;58.50;;;;;;4985780;28;20456;-57
2022/12/20 12:34:53;;;;;;;12.00;9.30;;;11.80;58.00;;;;;;4984958;28;20500;-56
2022/12/20 12:37:35;;;;;;;16.17;9.00;;;11.70;58.20;;;;;;4989413;28;20504;-55
2022/12/20 12:40:28;;;;;;;10.70;8.90;;;11.70;58.50;;;;;;4986486;28;20607;-55
2022/12/20 12:43:25;;;;;;;11.90;9.70;;;11.70;58.90;;;;;;4988412;28;20528;-57
2022/12/20 12:45:56;;;;;;;13.90;10.60;;;11.80;58.50;;;;;;4990547;28;20446;-58
2022/12/20 12:48:42;;;;;;;12.47;9.60;;;11.80;58.60;;;;;;4990183;28;20455;-58
2022/12/20 12:51:09;;;;;;;16.57;9.90;;;11.90;58.20;;;;;;4990513;28;20453;-57
2022/12/20 12:53:48;;;;;;;11.80;8.87;;;11.90;58.60;;;;;;4987502;28;20465;-56
2022/12/20 12:56:41;;;;;;;15.10;11.97;;;12.00;58.30;;;;;;4988921;28;20446;-57
2022/12/20 12:59:06;;;;;;;15.10;12.57;;;12.20;58.20;;;;;;4989266;28;20920;-56